Aérodrome :
LOGIN :

S'inscrire | Disclaimer

   EN    FR    IT 

 










Légende :    VFR   VFR Marginal   IFR   IFR Intensif   IFR Très Intensif
Visi : 
Plafond : 
>= 8 km
>= 3000ft
5 à 8 km
1000 à 3000 ft
1500m à 5 km
500 à 1000 ft
800 à 1500m
200 à 500 ft
< 800m
< 200 ft
Symboles :   Orages  Brouillard  Fortes neiges  Fortes précipitations  Vent > 20 kt
SIGMETs :   Divers  Orages  Givrage  Turbulence  Onde Orograph.  Cendres Volcan.






- Altitude de l'aérodrome : 160 ft
- Code IATA : LRT


LFRH - Lorient Lann Bihoue

DERNIER METAR :
  • 191530Z AUTO 23014KT 9999 FEW016 BKN050 11/08 Q1025 TEMPO 4500 RA BKN008

METARs EXPIRÉS :
  • 191500Z AUTO 24017KT 9999 FEW017 BKN047 BKN220 11/08 Q1026 TEMPO 4500 RA BKN008 BECMG 25010G25KT
  • 191430Z AUTO 25018KT 9999 SCT021 SCT048 12/08 Q1026 TEMPO 4500 RA BKN008 BECMG 25010G25KT
  • 191400Z AUTO 25017KT 9999 FEW021 OVC046 12/08 Q1027 TEMPO 4500 RA BKN008 BECMG 25010G25KT
  • 191330Z AUTO 24017KT 9999 BKN018 BKN023 BKN044 12/09 Q1027 TEMPO 4500 RA BKN008 BECMG 25010G25KT
  • 191300Z AUTO 24018KT 9999 BKN017 BKN023 OVC043 12/09 Q1027 TEMPO 4500 RA BKN008 BECMG 25010G25KT
  • 191230Z AUTO 25016KT 9999 FEW017 BKN038 OVC044 11/09 Q1028 TEMPO 4500 RA BKN008 BECMG 25010G25KT

TAF TAF LFRH
Valide du 19 à 12h jusqu'au 20 à 12h UTC


191100Z 1912/2012 25010G25KT 9999 BKN015 BKN025
TEMPO 1912/2002 4500 RA
PROB40
TEMPO 1912/1919 BKN008
BECMG 2002/2004 BKN035
BECMG 2009/2011 22020G35KT BKN015
BECMG 2010/2012 -RADZ BKN008 OVC012



MET'MAP, la Météo Aéronautique d'un coup d'oeil ! - Copyright ORBIFLY Décembre 2007 - Disclaimer

ORBIFLY MET'MAP TEAM :

Programmation & Développement : Alexandra Zaïnal
Sur une idée originale de : Baudouin d'Aumeries
Assistance à la programmation : Marc-Olivier Méhu
Soutien technique & logistique : Manuel Goepfert

Contact : metmap@orbifly.com




SOURCES & CREDITS :

   NOAA